Time;durP1;ratioP1;P1;durP2;ratioP2;P2;SDS_P1;SDS_P2;PMS_P1;PMS_P2;Temp;Humidity;BMP_temperature;BMP_pressure;BME280_temperature;BME280_humidity;BME280_pressure;Samples;Min_cycle;Max_cycle;Signal;HPM_P1;HPM_P2
2021/11/06 00:02:20;;;;;;;;;25.67;23.33;;;;;;;;4934564;28;44796;-83
2021/11/06 00:05:06;;;;;;;;;26.67;26.67;;;;;;;;4932232;28;45633;-83
2021/11/06 00:07:34;;;;;;;;;31.00;29.67;;;;;;;;4933543;28;47239;-83
2021/11/06 00:10:00;;;;;;;;;29.00;28.00;;;;;;;;4949614;28;45433;-82
2021/11/06 00:12:26;;;;;;;;;28.00;28.00;;;;;;;;4934195;28;46529;-82
2021/11/06 00:14:55;;;;;;;;;29.67;28.67;;;;;;;;4950421;28;45745;-82
2021/11/06 00:17:26;;;;;;;;;31.00;28.67;;;;;;;;4931716;28;47659;-83
2021/11/06 00:19:54;;;;;;;;;28.67;27.67;;;;;;;;4949374;28;45423;-83
2021/11/06 00:22:30;;;;;;;;;35.00;33.00;;;;;;;;4931743;28;45515;-82
2021/11/06 00:24:56;;;;;;;;;28.00;25.00;;;;;;;;4933397;28;45751;-83
2021/11/06 00:27:25;;;;;;;;;29.33;29.33;;;;;;;;4931064;28;46695;-82
2021/11/06 00:29:50;;;;;;;;;33.67;30.67;;;;;;;;4933637;28;45367;-82
2021/11/06 00:32:15;;;;;;;;;27.67;26.67;;;;;;;;4949587;28;45498;-82
2021/11/06 00:34:41;;;;;;;;;33.00;33.00;;;;;;;;4938841;28;44834;-82
2021/11/06 00:37:12;;;;;;;;;31.33;30.33;;;;;;;;4950716;28;46080;-82
2021/11/06 00:39:45;;;;;;;;;31.67;28.33;;;;;;;;4950059;28;45453;-83
2021/11/06 00:42:17;;;;;;;;;28.67;27.67;;;;;;;;4951667;28;45489;-82
2021/11/06 00:44:42;;;;;;;;;33.33;31.00;;;;;;;;4948972;28;45448;-82
2021/11/06 00:47:28;;;;;;;;;28.33;28.33;;;;;;;;4948357;28;45508;-81
2021/11/06 00:50:00;;;;;;;;;34.67;31.67;;;;;;;;4948115;28;45550;-82
2021/11/06 00:52:38;;;;;;;;;28.33;28.33;;;;;;;;4948681;28;45518;-82
2021/11/06 00:55:04;;;;;;;;;36.67;32.33;;;;;;;;4948594;28;45336;-82
2021/11/06 00:57:29;;;;;;;;;29.00;29.00;;;;;;;;4949812;28;45571;-81
2021/11/06 01:00:07;;;;;;;;;27.67;27.67;;;;;;;;4946646;28;44839;-80
2021/11/06 01:08:40;;;;;;;;;32.00;32.00;;;;;;;;4950215;28;45518;-81
2021/11/06 01:11:06;;;;;;;;;32.33;27.33;;;;;;;;4950034;28;44769;-81
2021/11/06 01:13:31;;;;;;;;;36.00;31.67;;;;;;;;4949027;28;45220;-81
2021/11/06 01:15:56;;;;;;;;;35.67;32.00;;;;;;;;4949603;28;45393;-81
2021/11/06 01:18:24;;;;;;;;;24.33;24.33;;;;;;;;4949617;28;45328;-81
2021/11/06 01:20:50;;;;;;;;;29.33;27.33;;;;;;;;4947987;28;45449;-81
2021/11/06 01:23:23;;;;;;;;;29.67;29.67;;;;;;;;4948254;28;45834;-82
2021/11/06 01:25:59;;;;;;;;;28.33;28.33;;;;;;;;4949650;28;45378;-81
2021/11/06 01:28:27;;;;;;;;;30.00;28.33;;;;;;;;4949715;28;47065;-80
2021/11/06 01:30:54;;;;;;;;;22.67;22.00;;;;;;;;4947369;28;45571;-82
2021/11/06 01:33:20;;;;;;;;;28.67;26.33;;;;;;;;4949124;28;45252;-82
2021/11/06 01:35:45;;;;;;;;;32.00;26.00;;;;;;;;4950567;28;45702;-81
2021/11/06 01:38:11;;;;;;;;;31.67;29.67;;;;;;;;4950931;28;45333;-81
2021/11/06 01:40:39;;;;;;;;;30.00;24.67;;;;;;;;4931076;28;45459;-80
2021/11/06 01:43:04;;;;;;;;;24.00;23.00;;;;;;;;4931789;28;45521;-82
2021/11/06 01:46:05;;;;;;;;;28.67;27.00;;;;;;;;4933050;28;45389;-82
2021/11/06 01:48:31;;;;;;;;;23.00;21.67;;;;;;;;4908621;28;46437;-81
2021/11/06 01:51:00;;;;;;;;;22.33;19.33;;;;;;;;4948836;28;45517;-82
2021/11/06 01:56:30;;;;;;;;;19.67;19.67;;;;;;;;4947219;28;45294;-81
2021/11/06 01:58:55;;;;;;;;;17.67;17.67;;;;;;;;4951334;28;45906;-82
2021/11/06 02:01:20;;;;;;;;;21.00;20.00;;;;;;;;4934327;28;45569;-82
2021/11/06 02:03:49;;;;;;;;;18.33;17.33;;;;;;;;4950375;28;45455;-83
2021/11/06 02:06:17;;;;;;;;;19.33;17.33;;;;;;;;4933573;28;45593;-83
2021/11/06 02:11:51;;;;;;;;;16.33;16.00;;;;;;;;4949427;28;45547;-82
2021/11/06 02:14:17;;;;;;;;;19.33;17.00;;;;;;;;4950181;28;45586;-82
2021/11/06 02:16:42;;;;;;;;;21.00;17.67;;;;;;;;4952800;28;45385;-82
2021/11/06 02:19:10;;;;;;;;;16.00;15.67;;;;;;;;4950495;28;45003;-84
2021/11/06 02:21:37;;;;;;;;;17.67;17.00;;;;;;;;4934453;28;45330;-82
2021/11/06 02:24:02;;;;;;;;;20.33;18.67;;;;;;;;4933937;28;45789;-82
2021/11/06 02:26:28;;;;;;;;;17.67;17.67;;;;;;;;4951873;28;45415;-82
2021/11/06 02:28:58;;;;;;;;;17.00;17.00;;;;;;;;4951936;28;45381;-82
2021/11/06 02:31:23;;;;;;;;;16.00;16.00;;;;;;;;4934177;28;44795;-82
2021/11/06 02:37:20;;;;;;;;;14.00;13.67;;;;;;;;4971536;28;45510;-83
2021/11/06 02:39:45;;;;;;;;;17.33;16.33;;;;;;;;4952810;28;46971;-83
2021/11/06 02:42:14;;;;;;;;;14.33;13.00;;;;;;;;4969375;28;45451;-83
2021/11/06 02:44:39;;;;;;;;;20.33;17.00;;;;;;;;4952609;28;45487;-83
2021/11/06 02:47:06;;;;;;;;;17.00;15.67;;;;;;;;4969697;28;45518;-82
2021/11/06 02:49:32;;;;;;;;;17.00;15.67;;;;;;;;4958169;28;45294;-83
2021/11/06 02:51:57;;;;;;;;;16.67;16.67;;;;;;;;4951254;28;45607;-83
2021/11/06 02:54:23;;;;;;;;;13.00;11.67;;;;;;;;4933591;28;45404;-83
2021/11/06 02:56:49;;;;;;;;;16.33;13.00;;;;;;;;4936030;28;45458;-83
2021/11/06 02:59:15;;;;;;;;;15.00;15.00;;;;;;;;4954110;28;48083;-82
2021/11/06 03:01:40;;;;;;;;;11.33;11.00;;;;;;;;4953752;28;45947;-82
2021/11/06 03:04:06;;;;;;;;;15.33;15.33;;;;;;;;4953173;28;44812;-83
2021/11/06 03:06:32;;;;;;;;;14.33;14.33;;;;;;;;4968787;28;45821;-82
2021/11/06 03:09:05;;;;;;;;;14.33;13.00;;;;;;;;4966855;28;45541;-82
2021/11/06 03:12:05;;;;;;;;;12.33;11.00;;;;;;;;4950365;28;45474;-82
2021/11/06 03:14:44;;;;;;;;;15.00;13.00;;;;;;;;4953642;28;45456;-83
2021/11/06 03:17:12;;;;;;;;;12.00;12.00;;;;;;;;4952468;28;45444;-83
2021/11/06 03:19:40;;;;;;;;;12.67;12.67;;;;;;;;4970113;28;45648;-82
2021/11/06 03:22:11;;;;;;;;;10.67;9.33;;;;;;;;4951185;28;45428;-82
2021/11/06 03:27:42;;;;;;;;;13.00;10.67;;;;;;;;4970229;28;44809;-83
2021/11/06 03:30:37;;;;;;;;;11.67;9.33;;;;;;;;4952462;28;47250;-83
2021/11/06 03:33:09;;;;;;;;;16.00;15.33;;;;;;;;4856059;29;45495;-82
2021/11/06 03:35:35;;;;;;;;;18.00;17.00;;;;;;;;4854581;29;44927;-83
2021/11/06 03:38:01;;;;;;;;;16.67;16.67;;;;;;;;4855377;29;44906;-83
2021/11/06 03:40:26;;;;;;;;;19.00;18.33;;;;;;;;4854405;29;46835;-82
2021/11/06 03:42:52;;;;;;;;;20.33;20.00;;;;;;;;4854775;29;45427;-82
2021/11/06 03:45:17;;;;;;;;;19.00;16.33;;;;;;;;4854929;29;45457;-82
2021/11/06 03:50:45;;;;;;;;;16.67;15.67;;;;;;;;4871159;29;45330;-82
2021/11/06 03:53:14;;;;;;;;;21.00;18.33;;;;;;;;4871928;29;45487;-82
2021/11/06 03:55:39;;;;;;;;;21.00;17.67;;;;;;;;4855332;29;45424;-83
2021/11/06 03:58:09;;;;;;;;;16.33;16.33;;;;;;;;4856594;29;45492;-82
2021/11/06 04:00:34;;;;;;;;;11.00;11.00;;;;;;;;4871739;29;45460;-81
2021/11/06 04:03:26;;;;;;;;;11.33;11.00;;;;;;;;4853162;29;45339;-83
2021/11/06 04:05:56;;;;;;;;;13.67;10.67;;;;;;;;4853510;29;45471;-81
2021/11/06 04:08:21;;;;;;;;;12.67;10.00;;;;;;;;4868270;29;45619;-82
2021/11/06 04:10:46;;;;;;;;;17.00;14.00;;;;;;;;4914726;28;47458;-83
2021/11/06 04:13:13;;;;;;;;;13.33;13.33;;;;;;;;4929244;28;45884;-82
2021/11/06 04:15:39;;;;;;;;;13.00;10.00;;;;;;;;4928720;28;45551;-83
2021/11/06 04:18:05;;;;;;;;;11.33;10.33;;;;;;;;4948675;28;45480;-82
2021/11/06 04:20:33;;;;;;;;;14.00;14.00;;;;;;;;4931741;28;47427;-82
2021/11/06 04:22:58;;;;;;;;;13.67;12.00;;;;;;;;4930829;28;45361;-82
2021/11/06 04:25:24;;;;;;;;;14.33;14.33;;;;;;;;4930823;28;45406;-82
2021/11/06 04:27:52;;;;;;;;;12.00;11.00;;;;;;;;4931068;28;45444;-82
2021/11/06 04:30:18;;;;;;;;;15.00;13.00;;;;;;;;4931666;28;47391;-82
2021/11/06 04:32:43;;;;;;;;;12.00;11.67;;;;;;;;4947658;28;45600;-82
2021/11/06 04:35:09;;;;;;;;;22.00;12.00;;;;;;;;4932175;28;44900;-83
2021/11/06 04:37:36;;;;;;;;;10.00;9.67;;;;;;;;4932315;28;44840;-82
2021/11/06 04:40:03;;;;;;;;;14.33;11.00;;;;;;;;4931096;28;46263;-83
2021/11/06 04:42:28;;;;;;;;;18.67;12.00;;;;;;;;4923012;28;45398;-83
2021/11/06 04:44:56;;;;;;;;;10.67;10.67;;;;;;;;4912687;28;45384;-82
2021/11/06 04:47:21;;;;;;;;;15.33;15.33;;;;;;;;4913178;28;45408;-82
2021/11/06 04:49:49;;;;;;;;;11.33;11.33;;;;;;;;4934173;28;46656;-82
2021/11/06 04:52:17;;;;;;;;;14.33;13.33;;;;;;;;4930739;28;45469;-81
2021/11/06 04:54:42;;;;;;;;;15.67;15.00;;;;;;;;4929742;28;45393;-82
2021/11/06 04:57:07;;;;;;;;;15.33;14.67;;;;;;;;4930754;28;45214;-82
2021/11/06 04:59:33;;;;;;;;;16.00;14.00;;;;;;;;4931920;28;46698;-81
2021/11/06 05:02:00;;;;;;;;;11.33;11.33;;;;;;;;4930165;28;45363;-82
2021/11/06 05:04:25;;;;;;;;;19.00;16.00;;;;;;;;4931986;28;45496;-82
2021/11/06 05:06:54;;;;;;;;;14.33;14.33;;;;;;;;4931475;28;45542;-82
2021/11/06 05:09:19;;;;;;;;;11.33;11.00;;;;;;;;4914848;28;46847;-82
2021/11/06 05:11:44;;;;;;;;;12.00;11.00;;;;;;;;4930780;28;45545;-83
2021/11/06 05:14:10;;;;;;;;;12.00;11.00;;;;;;;;4948110;28;45454;-83
2021/11/06 05:16:35;;;;;;;;;16.00;16.00;;;;;;;;4931228;28;44868;-83
2021/11/06 05:19:01;;;;;;;;;11.33;10.67;;;;;;;;4947357;28;46014;-82
2021/11/06 05:21:36;;;;;;;;;19.67;15.33;;;;;;;;4929708;28;45476;-82
2021/11/06 05:24:02;;;;;;;;;13.67;13.67;;;;;;;;4947463;28;45412;-82
2021/11/06 05:26:27;;;;;;;;;13.33;12.00;;;;;;;;4947931;28;45514;-82
2021/11/06 05:28:53;;;;;;;;;12.67;12.00;;;;;;;;4932338;28;47136;-82
2021/11/06 05:31:18;;;;;;;;;14.00;13.33;;;;;;;;4948412;28;45482;-82
2021/11/06 05:33:43;;;;;;;;;7.00;6.00;;;;;;;;4928669;28;45373;-83
2021/11/06 05:36:08;;;;;;;;;19.00;17.67;;;;;;;;4931418;28;45469;-82
2021/11/06 05:38:34;;;;;;;;;18.67;18.67;;;;;;;;4929666;28;46991;-81
2021/11/06 05:41:02;;;;;;;;;17.00;14.00;;;;;;;;4946400;28;45773;-82
2021/11/06 05:43:27;;;;;;;;;8.33;7.00;;;;;;;;4946039;28;45576;-82
2021/11/06 05:46:01;;;;;;;;;14.33;14.33;;;;;;;;4913229;28;45413;-82
2021/11/06 05:48:31;;;;;;;;;12.00;12.00;;;;;;;;4930684;28;45124;-83
2021/11/06 05:50:58;;;;;;;;;15.67;15.00;;;;;;;;4913153;28;44769;-84
2021/11/06 05:53:43;;;;;;;;;11.33;11.00;;;;;;;;4930349;28;45376;-83
2021/11/06 05:56:12;;;;;;;;;16.00;14.00;;;;;;;;4912140;28;45323;-83
2021/11/06 05:58:59;;;;;;;;;15.33;15.33;;;;;;;;4911498;28;46928;-83
2021/11/06 06:01:27;;;;;;;;;15.00;15.00;;;;;;;;4911561;28;45381;-82
2021/11/06 06:03:55;;;;;;;;;15.00;15.00;;;;;;;;4929870;28;45478;-81
2021/11/06 06:06:21;;;;;;;;;14.33;14.33;;;;;;;;4929759;28;45793;-82
2021/11/06 06:08:47;;;;;;;;;14.67;14.67;;;;;;;;4911084;28;46929;-81
2021/11/06 06:11:16;;;;;;;;;18.67;15.67;;;;;;;;4928994;28;45615;-83
2021/11/06 06:13:42;;;;;;;;;18.67;15.67;;;;;;;;4932010;28;45489;-84
2021/11/06 06:16:07;;;;;;;;;15.00;12.00;;;;;;;;4913222;28;45541;-83
2021/11/06 06:18:32;;;;;;;;;20.67;18.33;;;;;;;;4912089;28;45365;-83
2021/11/06 06:21:00;;;;;;;;;16.00;16.00;;;;;;;;4929516;28;45377;-83
2021/11/06 06:23:29;;;;;;;;;20.00;20.00;;;;;;;;4930475;28;45377;-83
2021/11/06 06:25:54;;;;;;;;;20.00;18.33;;;;;;;;4912309;28;45756;-83
2021/11/06 06:28:19;;;;;;;;;15.67;15.67;;;;;;;;4912035;28;47125;-83
2021/11/06 06:30:45;;;;;;;;;21.33;20.33;;;;;;;;4912814;28;45358;-82
2021/11/06 06:33:10;;;;;;;;;21.67;21.67;;;;;;;;4930463;28;45482;-82
2021/11/06 06:35:52;;;;;;;;;24.67;23.00;;;;;;;;4934856;28;45427;-82
2021/11/06 06:38:19;;;;;;;;;21.00;19.33;;;;;;;;4910624;28;45083;-82
2021/11/06 06:40:44;;;;;;;;;28.00;26.33;;;;;;;;4911807;29;44830;-82
2021/11/06 06:43:10;;;;;;;;;27.00;24.33;;;;;;;;4893921;28;44758;-81
2021/11/06 06:49:04;;;;;;;;;29.00;26.67;;;;;;;;4952132;28;44872;-83
2021/11/06 06:51:29;;;;;;;;;22.00;22.00;;;;;;;;4950482;28;45390;-82
2021/11/06 06:54:00;;;;;;;;;25.67;23.67;;;;;;;;4933768;28;45419;-82
2021/11/06 06:56:25;;;;;;;;;20.33;20.33;;;;;;;;4933717;28;44827;-83
2021/11/06 06:58:51;;;;;;;;;22.33;22.33;;;;;;;;4932669;28;46936;-83
2021/11/06 07:01:19;;;;;;;;;21.33;21.33;;;;;;;;4932738;28;45395;-81
2021/11/06 07:03:46;;;;;;;;;23.67;22.33;;;;;;;;4931555;28;45386;-82
2021/11/06 07:06:22;;;;;;;;;20.33;20.00;;;;;;;;4932393;28;45573;-82
2021/11/06 07:08:47;;;;;;;;;23.33;19.00;;;;;;;;4932774;28;45173;-81
2021/11/06 07:11:12;;;;;;;;;27.33;23.67;;;;;;;;4950347;28;45519;-82
2021/11/06 07:13:38;;;;;;;;;24.33;19.00;;;;;;;;4934222;28;45265;-82
2021/11/06 07:16:04;;;;;;;;;23.33;22.00;;;;;;;;4932774;28;44914;-82
2021/11/06 07:18:36;;;;;;;;;19.67;19.33;;;;;;;;4950626;28;46533;-83
2021/11/06 07:21:02;;;;;;;;;24.00;22.33;;;;;;;;4933357;28;45419;-83
2021/11/06 07:23:27;;;;;;;;;24.33;24.00;;;;;;;;4933508;28;45503;-82
2021/11/06 07:25:59;;;;;;;;;22.33;22.33;;;;;;;;4950669;28;44783;-82
2021/11/06 07:28:24;;;;;;;;;29.67;27.00;;;;;;;;4933309;28;48110;-82
2021/11/06 07:30:51;;;;;;;;;31.67;28.00;;;;;;;;4932568;28;45463;-82
2021/11/06 07:33:16;;;;;;;;;29.00;29.00;;;;;;;;4949533;28;44863;-82
2021/11/06 07:35:42;;;;;;;;;32.67;29.00;;;;;;;;4933606;28;45869;-83
2021/11/06 07:38:07;;;;;;;;;38.33;32.33;;;;;;;;4932961;28;46967;-81
2021/11/06 07:40:32;;;;;;;;;34.00;31.67;;;;;;;;4933454;28;45475;-82
2021/11/06 07:42:58;;;;;;;;;39.33;33.67;;;;;;;;4935923;28;45502;-82
2021/11/06 07:45:23;;;;;;;;;41.67;38.00;;;;;;;;4935033;28;45463;-83
2021/11/06 07:47:48;;;;;;;;;36.33;34.00;;;;;;;;4951631;28;45412;-82
2021/11/06 07:50:14;;;;;;;;;44.00;37.33;;;;;;;;4934764;28;44834;-82
2021/11/06 07:52:41;;;;;;;;;39.33;35.67;;;;;;;;4951086;28;45444;-82
2021/11/06 07:55:06;;;;;;;;;37.67;34.67;;;;;;;;4949855;28;44756;-82
2021/11/06 07:57:37;;;;;;;;;28.00;26.33;;;;;;;;4932329;28;47044;-82
2021/11/06 08:00:08;;;;;;;;;30.00;30.00;;;;;;;;4951215;28;45510;-83
2021/11/06 08:02:33;;;;;;;;;35.33;33.33;;;;;;;;4949913;28;45396;-83
2021/11/06 08:04:59;;;;;;;;;34.00;34.00;;;;;;;;4932131;28;45342;-83
2021/11/06 08:07:25;;;;;;;;;37.00;35.00;;;;;;;;4949516;28;45078;-83
2021/11/06 08:09:50;;;;;;;;;31.33;27.67;;;;;;;;4930778;28;45318;-83
2021/11/06 08:12:15;;;;;;;;;31.33;31.33;;;;;;;;4932598;28;44783;-83
2021/11/06 08:14:44;;;;;;;;;30.33;27.33;;;;;;;;4932433;28;46083;-83
2021/11/06 08:17:10;;;;;;;;;31.00;28.33;;;;;;;;4932018;28;45507;-83
2021/11/06 08:19:38;;;;;;;;;27.00;26.67;;;;;;;;4933165;28;45196;-83
2021/11/06 08:22:08;;;;;;;;;31.33;25.67;;;;;;;;4933511;28;45459;-83
2021/11/06 08:24:36;;;;;;;;;27.00;25.00;;;;;;;;4933919;28;45521;-83
2021/11/06 08:27:01;;;;;;;;;27.33;26.67;;;;;;;;4950345;28;46321;-83
2021/11/06 08:35:40;;;;;;;;;29.67;28.33;;;;;;;;4947877;28;45534;-83
2021/11/06 08:38:05;;;;;;;;;29.67;25.67;;;;;;;;4898006;28;47021;-83
2021/11/06 08:40:30;;;;;;;;;25.67;25.67;;;;;;;;4892767;29;45699;-83
2021/11/06 08:42:56;;;;;;;;;33.00;28.67;;;;;;;;4909227;28;45515;-83
2021/11/06 08:45:25;;;;;;;;;31.00;27.67;;;;;;;;4892417;29;45987;-83
2021/11/06 08:47:52;;;;;;;;;24.67;23.67;;;;;;;;4893366;29;46885;-83
2021/11/06 08:50:22;;;;;;;;;27.67;25.67;;;;;;;;4910122;28;45744;-84
2021/11/06 08:52:50;;;;;;;;;28.00;27.00;;;;;;;;4894989;28;45529;-83
2021/11/06 08:55:21;;;;;;;;;31.00;29.00;;;;;;;;4932570;28;45471;-84
2021/11/06 08:57:47;;;;;;;;;23.67;23.33;;;;;;;;4914059;28;46735;-84
2021/11/06 09:00:18;;;;;;;;;27.33;26.33;;;;;;;;4911034;28;45849;-83
2021/11/06 09:02:44;;;;;;;;;26.33;20.67;;;;;;;;4911666;28;45496;-84
2021/11/06 09:05:10;;;;;;;;;22.33;22.33;;;;;;;;4929606;28;45318;-84
2021/11/06 09:07:36;;;;;;;;;23.67;22.00;;;;;;;;4911057;28;47220;-83
2021/11/06 09:10:20;;;;;;;;;18.67;18.33;;;;;;;;4911779;28;45505;-81
2021/11/06 09:15:48;;;;;;;;;17.33;16.33;;;;;;;;4929438;28;44757;-82
2021/11/06 09:18:18;;;;;;;;;15.00;13.00;;;;;;;;4911344;28;47188;-82
2021/11/06 09:21:11;;;;;;;;;17.00;14.33;;;;;;;;4911490;28;45432;-83
2021/11/06 09:23:43;;;;;;;;;18.33;18.33;;;;;;;;4816970;29;45502;-83
2021/11/06 09:26:10;;;;;;;;;24.00;21.00;;;;;;;;4833328;29;45428;-83
2021/11/06 09:28:42;;;;;;;;;20.33;18.33;;;;;;;;4833385;29;45530;-83
2021/11/06 09:31:11;;;;;;;;;19.33;18.00;;;;;;;;4817308;29;45379;-83
2021/11/06 09:33:45;;;;;;;;;24.33;19.33;;;;;;;;4834274;29;45474;-83
2021/11/06 09:36:14;;;;;;;;;23.67;19.67;;;;;;;;4825254;29;44909;-83
2021/11/06 09:38:51;;;;;;;;;23.67;22.00;;;;;;;;4836563;29;46881;-83
2021/11/06 09:41:17;;;;;;;;;17.00;14.67;;;;;;;;4850768;29;44810;-83
2021/11/06 09:43:51;;;;;;;;;18.00;18.00;;;;;;;;4837024;29;45387;-83
2021/11/06 09:46:23;;;;;;;;;19.67;17.33;;;;;;;;4836687;29;45284;-82
2021/11/06 09:49:18;;;;;;;;;17.00;17.00;;;;;;;;4834847;29;47759;-82
2021/11/06 09:51:43;;;;;;;;;14.67;14.33;;;;;;;;4833966;29;44900;-83
2021/11/06 09:54:09;;;;;;;;;16.33;14.67;;;;;;;;4852320;29;45573;-84
2021/11/06 09:56:40;;;;;;;;;17.33;15.00;;;;;;;;4853122;29;45375;-82
2021/11/06 09:59:06;;;;;;;;;16.00;16.00;;;;;;;;4836847;29;46836;-82
2021/11/06 10:01:39;;;;;;;;;22.33;19.00;;;;;;;;4902701;28;45532;-82
2021/11/06 10:04:08;;;;;;;;;19.67;16.00;;;;;;;;4910656;28;45437;-82
2021/11/06 10:06:36;;;;;;;;;18.00;17.67;;;;;;;;4911129;28;45534;-83
2021/11/06 10:09:09;;;;;;;;;14.00;13.67;;;;;;;;4909877;28;45652;-83
2021/11/06 10:11:34;;;;;;;;;19.33;18.67;;;;;;;;4927936;28;45549;-82
2021/11/06 10:14:05;;;;;;;;;14.00;14.00;;;;;;;;4912917;28;45489;-83
2021/11/06 10:16:44;;;;;;;;;;;;;;;;;;;;;
2021/11/06 10:19:16;;;;;;;;;16.00;16.00;;;;;;;;4928625;28;76032;-83
2021/11/06 10:21:43;;;;;;;;;15.33;14.00;;;;;;;;4913441;28;45641;-83
2021/11/06 10:24:11;;;;;;;;;14.00;13.00;;;;;;;;4914460;28;45443;-83
2021/11/06 10:26:37;;;;;;;;;14.67;13.67;;;;;;;;4914856;28;44817;-83
2021/11/06 10:29:07;;;;;;;;;18.00;15.33;;;;;;;;4915405;28;47751;-83
2021/11/06 10:31:35;;;;;;;;;14.33;12.67;;;;;;;;4933335;28;45521;-83
2021/11/06 10:34:09;;;;;;;;;11.33;11.33;;;;;;;;4933654;28;45778;-84
2021/11/06 10:36:55;;;;;;;;;15.00;13.67;;;;;;;;4934188;28;45466;-84
2021/11/06 10:39:23;;;;;;;;;13.67;13.00;;;;;;;;4931415;28;45471;-83
2021/11/06 10:41:51;;;;;;;;;11.00;10.00;;;;;;;;4913873;28;45331;-83
2021/11/06 10:44:19;;;;;;;;;11.00;11.00;;;;;;;;4915590;28;45520;-81
2021/11/06 10:46:54;;;;;;;;;12.33;11.00;;;;;;;;4915976;28;44813;-84
2021/11/06 10:49:35;;;;;;;;;11.67;11.67;;;;;;;;4916779;28;45567;-84
2021/11/06 10:52:03;;;;;;;;;12.67;10.33;;;;;;;;4933237;28;45326;-84
2021/11/06 10:54:28;;;;;;;;;9.33;8.33;;;;;;;;4931799;28;45472;-82
2021/11/06 10:56:58;;;;;;;;;8.00;8.00;;;;;;;;4931359;28;45431;-84
2021/11/06 10:59:31;;;;;;;;;12.00;11.00;;;;;;;;4914786;28;48045;-82
2021/11/06 11:01:57;;;;;;;;;11.00;11.00;;;;;;;;4911626;28;45470;-82
2021/11/06 11:04:25;;;;;;;;;13.00;12.00;;;;;;;;4914075;28;45728;-83
2021/11/06 11:06:55;;;;;;;;;13.67;13.67;;;;;;;;4916713;28;45419;-83
2021/11/06 11:09:25;;;;;;;;;13.33;10.33;;;;;;;;4915692;28;47316;-83
2021/11/06 11:11:51;;;;;;;;;14.00;13.67;;;;;;;;4931569;28;45556;-83
2021/11/06 11:14:24;;;;;;;;;12.00;11.67;;;;;;;;4915983;28;45484;-84
2021/11/06 11:16:54;;;;;;;;;10.67;10.67;;;;;;;;4934398;28;45411;-83
2021/11/06 11:19:29;;;;;;;;;20.33;18.33;;;;;;;;4915764;28;46743;-83
2021/11/06 11:21:55;;;;;;;;;14.67;12.00;;;;;;;;4914693;28;45368;-83
2021/11/06 11:24:20;;;;;;;;;15.33;12.00;;;;;;;;4915072;28;45391;-83
2021/11/06 11:26:47;;;;;;;;;15.67;11.00;;;;;;;;4914783;28;45374;-83
2021/11/06 11:29:34;;;;;;;;;10.33;9.00;;;;;;;;4931722;28;46267;-83
2021/11/06 11:31:59;;;;;;;;;13.33;12.33;;;;;;;;4930087;28;45409;-83
2021/11/06 11:37:34;;;;;;;;;15.00;11.00;;;;;;;;4938545;28;44888;-84
2021/11/06 11:40:00;;;;;;;;;11.67;9.67;;;;;;;;4914294;28;47650;-83
2021/11/06 11:42:30;;;;;;;;;12.67;11.00;;;;;;;;4913689;28;45898;-83
2021/11/06 11:45:02;;;;;;;;;11.67;11.33;;;;;;;;4913083;28;44838;-83
2021/11/06 11:47:31;;;;;;;;;16.33;15.00;;;;;;;;4912822;28;44921;-83
2021/11/06 11:53:15;;;;;;;;;12.33;11.67;;;;;;;;4932842;28;45354;-83
2021/11/06 11:55:44;;;;;;;;;11.33;11.33;;;;;;;;4915483;28;45478;-82
2021/11/06 11:58:09;;;;;;;;;10.00;9.33;;;;;;;;4929920;28;45413;-82
2021/11/06 12:00:40;;;;;;;;;9.33;9.33;;;;;;;;4911934;28;46760;-84
2021/11/06 12:09:24;;;;;;;;;8.67;8.67;;;;;;;;4930248;28;44819;-83
2021/11/06 12:11:51;;;;;;;;;9.67;9.00;;;;;;;;4913453;28;47191;-82
2021/11/06 12:14:19;;;;;;;;;9.33;8.00;;;;;;;;4930657;28;45325;-83
2021/11/06 12:16:56;;;;;;;;;10.67;8.67;;;;;;;;4913649;28;45441;-83
2021/11/06 12:19:42;;;;;;;;;9.00;9.00;;;;;;;;4914564;28;45430;-83
2021/11/06 12:22:22;;;;;;;;;9.00;9.00;;;;;;;;4913964;28;45322;-83
2021/11/06 12:24:50;;;;;;;;;8.00;8.00;;;;;;;;4912395;28;45425;-83
2021/11/06 12:27:17;;;;;;;;;8.67;7.00;;;;;;;;4931257;28;45938;-83
2021/11/06 12:29:50;;;;;;;;;10.33;9.67;;;;;;;;4915045;28;45685;-83
2021/11/06 12:32:15;;;;;;;;;8.00;8.00;;;;;;;;4930620;28;45561;-82
2021/11/06 12:34:47;;;;;;;;;8.67;8.67;;;;;;;;4913524;28;45598;-82
2021/11/06 12:37:33;;;;;;;;;9.67;9.33;;;;;;;;4912022;28;45422;-82
2021/11/06 12:39:59;;;;;;;;;4.00;2.00;;;;;;;;4897330;28;45739;-83
2021/11/06 12:42:26;;;;;;;;;11.00;11.00;;;;;;;;4911205;28;46933;-83
2021/11/06 12:44:52;;;;;;;;;8.67;8.67;;;;;;;;4912681;28;45536;-83
2021/11/06 12:47:17;;;;;;;;;8.67;8.67;;;;;;;;4910112;28;45860;-83
2021/11/06 12:49:43;;;;;;;;;10.67;9.00;;;;;;;;4894178;29;45592;-83
2021/11/06 12:52:33;;;;;;;;;13.50;13.50;;;;;;;;4894087;29;46681;-83
2021/11/06 12:55:14;;;;;;;;;10.33;9.67;;;;;;;;4892815;29;44850;-83
2021/11/06 12:57:41;;;;;;;;;9.00;9.00;;;;;;;;4917361;28;45312;-83
2021/11/06 13:00:11;;;;;;;;;7.00;7.00;;;;;;;;4930205;28;45366;-83
2021/11/06 13:02:47;;;;;;;;;8.00;8.00;;;;;;;;4912642;28;46930;-83
2021/11/06 13:05:13;;;;;;;;;7.67;7.67;;;;;;;;4931077;28;45490;-84
2021/11/06 13:07:38;;;;;;;;;7.33;7.33;;;;;;;;4912455;28;44979;-83
2021/11/06 13:10:18;;;;;;;;;9.00;8.00;;;;;;;;4914257;28;45468;-83
2021/11/06 13:12:43;;;;;;;;;8.67;5.67;;;;;;;;4913202;28;47374;-84
2021/11/06 13:15:10;;;;;;;;;8.00;8.00;;;;;;;;4912664;28;45294;-83
2021/11/06 13:17:36;;;;;;;;;5.67;5.67;;;;;;;;4929455;28;45703;-83
2021/11/06 13:20:06;;;;;;;;;8.33;8.00;;;;;;;;4929817;28;45335;-84
2021/11/06 13:22:31;;;;;;;;;10.33;8.00;;;;;;;;4913299;28;46989;-83
2021/11/06 13:25:18;;;;;;;;;8.33;8.33;;;;;;;;4912986;28;45460;-83
2021/11/06 13:27:46;;;;;;;;;5.33;5.33;;;;;;;;4913220;28;45543;-83
2021/11/06 13:30:32;;;;;;;;;6.00;6.00;;;;;;;;4928939;28;44847;-83
2021/11/06 13:33:04;;;;;;;;;5.00;5.00;;;;;;;;4910789;28;46766;-83
2021/11/06 13:35:31;;;;;;;;;4.67;4.00;;;;;;;;4910808;28;45455;-83
2021/11/06 13:38:10;;;;;;;;;7.00;5.00;;;;;;;;4918945;28;45401;-84
2021/11/06 13:41:12;;;;;;;;;6.00;4.00;;;;;;;;4947017;28;44818;-83
2021/11/06 13:43:46;;;;;;;;;3.67;3.67;;;;;;;;4929167;28;46959;-84
2021/11/06 13:46:14;;;;;;;;;6.33;5.00;;;;;;;;4947184;28;44827;-83
2021/11/06 13:48:49;;;;;;;;;6.67;5.33;;;;;;;;4947991;28;45447;-83
2021/11/06 13:51:18;;;;;;;;;5.00;5.00;;;;;;;;4928871;28;45425;-83
2021/11/06 13:54:02;;;;;;;;;5.00;5.00;;;;;;;;4926353;28;46992;-83
2021/11/06 13:56:30;;;;;;;;;4.00;4.00;;;;;;;;4928730;28;45282;-83
2021/11/06 13:58:59;;;;;;;;;3.67;3.67;;;;;;;;4946353;28;45380;-83
2021/11/06 14:01:25;;;;;;;;;5.33;4.67;;;;;;;;4946646;28;45733;-85
2021/11/06 14:03:51;;;;;;;;;6.33;4.33;;;;;;;;4929591;28;46718;-83
2021/11/06 14:06:16;;;;;;;;;7.00;6.00;;;;;;;;4931918;28;45512;-83
2021/11/06 14:08:42;;;;;;;;;4.67;4.00;;;;;;;;4949361;28;45427;-82
2021/11/06 14:11:19;;;;;;;;;5.67;3.67;;;;;;;;4933105;28;45497;-83
2021/11/06 14:14:04;;;;;;;;;4.33;4.33;;;;;;;;4928354;28;45626;-84
2021/11/06 14:16:32;;;;;;;;;5.00;4.00;;;;;;;;4930910;28;45401;-82
2021/11/06 14:19:08;;;;;;;;;5.00;5.00;;;;;;;;4932130;28;44855;-82
2021/11/06 14:21:38;;;;;;;;;5.33;5.00;;;;;;;;4932933;28;45596;-84
2021/11/06 14:24:07;;;;;;;;;5.33;4.00;;;;;;;;4931885;28;45389;-82
2021/11/06 14:26:43;;;;;;;;;6.33;6.33;;;;;;;;4949506;28;44813;-83
2021/11/06 14:29:27;;;;;;;;;4.00;4.00;;;;;;;;4934085;28;45411;-82
2021/11/06 14:31:53;;;;;;;;;4.00;4.00;;;;;;;;4932465;28;45904;-83
2021/11/06 14:34:21;;;;;;;;;3.00;3.00;;;;;;;;4930386;28;46836;-82
2021/11/06 14:36:56;;;;;;;;;4.00;4.00;;;;;;;;4947939;28;45320;-82
2021/11/06 14:39:21;;;;;;;;;6.33;4.67;;;;;;;;4912307;28;45497;-82
2021/11/06 14:41:58;;;;;;;;;4.00;4.00;;;;;;;;4905849;29;45390;-82
2021/11/06 14:44:28;;;;;;;;;7.33;6.00;;;;;;;;4892531;29;45462;-82
2021/11/06 14:46:56;;;;;;;;;7.00;5.00;;;;;;;;4910570;28;45717;-84
2021/11/06 14:52:26;;;;;;;;;5.67;5.67;;;;;;;;4921519;28;45440;-83
2021/11/06 14:54:51;;;;;;;;;7.33;6.67;;;;;;;;4911566;28;45723;-82
2021/11/06 14:57:17;;;;;;;;;10.67;10.67;;;;;;;;4912846;28;45496;-83
2021/11/06 14:59:43;;;;;;;;;8.67;8.67;;;;;;;;4929942;28;45274;-83
2021/11/06 15:02:11;;;;;;;;;7.33;7.33;;;;;;;;4914175;28;45422;-83
2021/11/06 15:04:45;;;;;;;;;10.67;9.67;;;;;;;;4912038;28;46078;-83
2021/11/06 15:07:11;;;;;;;;;8.00;6.67;;;;;;;;4914757;28;45732;-82
2021/11/06 15:09:36;;;;;;;;;6.33;4.00;;;;;;;;4933190;28;45433;-83
2021/11/06 15:12:04;;;;;;;;;7.00;5.00;;;;;;;;4914097;28;45521;-83
2021/11/06 15:14:32;;;;;;;;;5.67;5.67;;;;;;;;4913716;28;47023;-82
2021/11/06 15:17:04;;;;;;;;;8.33;5.33;;;;;;;;4933177;28;45205;-83
2021/11/06 15:19:33;;;;;;;;;9.00;6.67;;;;;;;;4934369;28;45644;-83
2021/11/06 15:21:58;;;;;;;;;11.33;8.00;;;;;;;;4917108;28;45530;-83
2021/11/06 15:24:25;;;;;;;;;4.00;4.00;;;;;;;;4932452;28;45470;-83
2021/11/06 15:26:56;;;;;;;;;5.00;5.00;;;;;;;;4914242;28;44773;-83